Main page
METAR-TAF:

METAR-TAF

Airports :

Basra, Iraq

Basra International Airport

latitude: 30-32-56N, longitude: 47-39-45E, elevation: 1 m

Current weather observation

The report was made 2 hours and 3 minutes ago, at 00:00 UTC
Wind 14 kt from the Northwest
Temperature 37°C
Humidity 14%
Pressure 995 hPa
Visibility 10 km or more
no clouds below 1500 m and no cumulonimbus

METAR: ORMM 290000Z 31014KT CAVOK 37/05 Q0995 NOSIG

Time: 05:03 (02:03 UTC)

Forecast

The report was made 4 hours and 3 minutes ago, at 22:00 UTC
Forecast valid from 29 at 00 UTC to 29 at 24 UTC
Wind 12 kt from the West/Northwest
Visibility: 8000 m
Becoming
from 29 at 04 UTC to 29 at 06 UTC
Wind 12 kt from the West/Northwest with gusts up to 24 kt
Visibility: 6000 m

TAF: ORMM 282200Z 2900/2924 29012KT 8000 NSC BECMG 2904/2906 29012G24KT 6000

Weather observations and forecasts of more than 4000 airports (METAR and TAF reports).

The available stations are represented by yellow and red dots on the map.

Hover mouse over dot to see the name of the station.

Then click to see weather observations and forecasts.

To change the map : click on the green buttons with a black cross to zoom in, on the green button with a dash to zoom out, or on the green arrows for adjacent maps.


METAR-TAF: